Sunday, October 22, 2017, 5:16 PM EDT
Back to Local

KDUJ, Du Bois-jefferson County

Location: Reynoldsville, PA, United States Lat: 41.183
Local Time: 5:16 PM EDT (21:16 GMT) Lon: -78.883
Time Zone: US/Eastern Elev: 1820 ft

Show me the last for .
Show Decoded

2017-10-22 16:53 METAR KDUJ 222053Z AUTO 11005KT 10SM CLR 21/09 A3023 RMK AO2 SLP232 T02110094
                 56015 =
2017-10-22 15:53 METAR KDUJ 221953Z AUTO 15007KT 110V190 10SM CLR 23/09 A3025 RMK AO2 SLP236
                 T02280094 =
2017-10-22 14:53 METAR KDUJ 221853Z AUTO 17005KT 10SM CLR 22/09 A3025 RMK AO2 SLP237 T02220089 =
2017-10-22 13:53 METAR KDUJ 221753Z AUTO 15007KT 10SM CLR 23/10 A3028 RMK AO2 SLP246 T02280100
                 10233 20117 58014 $ =
2017-10-22 12:53 METAR KDUJ 221653Z AUTO VRB04KT 10SM CLR 22/10 A3030 RMK AO2 SLP255 T02220100 $
                 =
2017-10-22 11:53 METAR KDUJ 221553Z AUTO VRB06KT 10SM CLR 21/09 A3032 RMK AO2 SLP261 T02060094 $
                 =
2017-10-22 10:53 METAR KDUJ 221453Z AUTO VRB06KT 10SM CLR 17/08 A3032 RMK AO2 SLP264 T01720083
                 58001 $ =
2017-10-22 09:53 METAR KDUJ 221353Z AUTO 12008KT 10SM CLR 15/07 A3033 RMK AO2 SLP270 T01500072 =
2017-10-22 08:53 METAR KDUJ 221253Z AUTO 11006KT 10SM CLR 13/07 A3034 RMK AO2 SLP270 T01330067 =
2017-10-22 07:53 METAR KDUJ 221153Z AUTO 11007KT 10SM CLR 11/06 A3033 RMK AO2 SLP268 T01110056
                 10133 20100 50005 =
2017-10-22 06:53 METAR KDUJ 221053Z AUTO 12004KT 10SM CLR 11/05 A3033 RMK AO2 SLP269 T01060050 =
2017-10-22 05:53 METAR KDUJ 220953Z AUTO 11005KT 10SM CLR 12/05 A3033 RMK AO2 SLP267 T01170050 =
2017-10-22 04:53 METAR KDUJ 220853Z AUTO 11004KT 10SM CLR 12/05 A3031 RMK AO2 SLP260 T01170050
                 53006 =
2017-10-22 03:53 METAR KDUJ 220753Z AUTO 12005KT 10SM CLR 12/05 A3029 RMK AO2 SLP252 T01220050 =
2017-10-22 02:53 METAR KDUJ 220653Z AUTO 13008KT 10SM CLR 13/05 A3029 RMK AO2 SLP251 T01280050 =
2017-10-22 01:53 METAR KDUJ 220553Z AUTO 13007KT 10SM CLR 13/05 A3029 RMK AO2 SLP251 T01330050
                 10167 20128 56007 =
2017-10-22 00:53 METAR KDUJ 220453Z AUTO 12006KT 10SM CLR 13/06 A3030 RMK AO2 SLP254 T01330056 =
2017-10-21 23:53 METAR KDUJ 220353Z AUTO 13007KT 10SM CLR 14/05 A3031 RMK AO2 SLP258 T01390050 =
2017-10-21 22:53 METAR KDUJ 220253Z AUTO 13008KT 10SM CLR 15/05 A3031 RMK AO2 SLP261 T01500050
                 58001 =
2017-10-21 21:53 METAR KDUJ 220153Z AUTO 13006KT 10SM CLR 15/05 A3032 RMK AO2 SLP266 T01500050 =
2017-10-21 20:53 METAR KDUJ 220053Z AUTO 11006KT 10SM CLR 16/06 A3032 RMK AO2 SLPNO T01610056 =
2017-10-21 19:53 METAR KDUJ 212353Z AUTO 12006KT 10SM CLR 17/05 A3032 RMK AO2 SLPNO T01670050
                 10222 20167 53007 =
2017-10-21 18:53 METAR KDUJ 212253Z AUTO 13005KT 10SM CLR 18/04 A3031 RMK AO2 SLPNO T01780044 =
2017-10-21 17:53 METAR KDUJ 212153Z AUTO 11006KT 10SM CLR 19/04 A3029 RMK AO2 SLPNO T01940044 =

Support USWX by starting your Amazon purchase here.